sensor_id;sensor_type;location;lat;lon;timestamp;P1;durP1;ratioP1;P2;durP2;ratioP2
13032;SDS011;6583;42.632;23.298;2024-03-23T00:55:17;1.97;;;1.77;;
13032;SDS011;6583;42.632;23.298;2024-03-23T00:57:43;2.00;;;1.57;;
13032;SDS011;6583;42.632;23.298;2024-03-23T01:00:11;1.70;;;1.60;;
13032;SDS011;6583;42.632;23.298;2024-03-23T01:02:38;2.20;;;1.43;;
13032;SDS011;6583;42.632;23.298;2024-03-23T01:05:04;1.70;;;1.20;;
13032;SDS011;6583;42.632;23.298;2024-03-23T01:07:31;1.80;;;1.60;;
13032;SDS011;6583;42.632;23.298;2024-03-23T01:09:57;2.33;;;1.50;;
13032;SDS011;6583;42.632;23.298;2024-03-23T01:12:23;1.70;;;1.60;;
13032;SDS011;6583;42.632;23.298;2024-03-23T01:14:49;1.73;;;1.40;;
13032;SDS011;6583;42.632;23.298;2024-03-23T01:17:17;1.67;;;1.37;;
13032;SDS011;6583;42.632;23.298;2024-03-23T01:19:43;1.53;;;1.40;;
13032;SDS011;6583;42.632;23.298;2024-03-23T01:22:09;1.80;;;1.57;;
13032;SDS011;6583;42.632;23.298;2024-03-23T01:24:35;1.60;;;1.50;;
13032;SDS011;6583;42.632;23.298;2024-03-23T01:27:01;2.33;;;1.70;;
13032;SDS011;6583;42.632;23.298;2024-03-23T01:29:28;1.80;;;1.60;;
13032;SDS011;6583;42.632;23.298;2024-03-23T01:31:55;1.97;;;1.37;;
13032;SDS011;6583;42.632;23.298;2024-03-23T01:34:22;1.77;;;1.30;;
13032;SDS011;6583;42.632;23.298;2024-03-23T01:36:50;2.73;;;1.70;;
13032;SDS011;6583;42.632;23.298;2024-03-23T01:39:15;1.60;;;1.50;;
13032;SDS011;6583;42.632;23.298;2024-03-23T01:41:42;1.50;;;1.40;;
13032;SDS011;6583;42.632;23.298;2024-03-23T01:44:08;2.30;;;1.50;;
13032;SDS011;6583;42.632;23.298;2024-03-23T01:46:36;1.80;;;1.40;;
13032;SDS011;6583;42.632;23.298;2024-03-23T01:49:02;1.53;;;1.40;;
13032;SDS011;6583;42.632;23.298;2024-03-23T01:51:31;1.73;;;1.63;;
13032;SDS011;6583;42.632;23.298;2024-03-23T01:53:57;2.00;;;1.60;;
13032;SDS011;6583;42.632;23.298;2024-03-23T01:56:27;2.70;;;2.00;;
13032;SDS011;6583;42.632;23.298;2024-03-23T01:58:53;1.87;;;1.73;;
13032;SDS011;6583;42.632;23.298;2024-03-23T02:01:20;2.50;;;1.93;;
13032;SDS011;6583;42.632;23.298;2024-03-23T02:03:46;2.60;;;2.10;;
13032;SDS011;6583;42.632;23.298;2024-03-23T02:06:12;2.60;;;1.70;;
13032;SDS011;6583;42.632;23.298;2024-03-23T02:08:39;2.60;;;1.90;;
13032;SDS011;6583;42.632;23.298;2024-03-23T02:11:06;2.30;;;2.00;;
13032;SDS011;6583;42.632;23.298;2024-03-23T02:13:32;2.33;;;2.00;;
13032;SDS011;6583;42.632;23.298;2024-03-23T02:15:59;2.07;;;1.90;;
13032;SDS011;6583;42.632;23.298;2024-03-23T02:18:25;2.20;;;1.90;;
13032;SDS011;6583;42.632;23.298;2024-03-23T02:20:51;2.67;;;1.70;;
13032;SDS011;6583;42.632;23.298;2024-03-23T02:23:18;2.60;;;2.13;;
13032;SDS011;6583;42.632;23.298;2024-03-23T02:25:45;4.03;;;2.13;;
13032;SDS011;6583;42.632;23.298;2024-03-23T02:28:11;4.17;;;2.20;;
13032;SDS011;6583;42.632;23.298;2024-03-23T02:30:38;2.73;;;2.10;;
13032;SDS011;6583;42.632;23.298;2024-03-23T02:33:04;3.00;;;2.50;;
13032;SDS011;6583;42.632;23.298;2024-03-23T02:35:31;2.83;;;2.10;;
13032;SDS011;6583;42.632;23.298;2024-03-23T02:37:56;3.27;;;2.10;;
13032;SDS011;6583;42.632;23.298;2024-03-23T02:40:24;2.47;;;1.90;;
13032;SDS011;6583;42.632;23.298;2024-03-23T02:42:50;2.43;;;1.90;;
13032;SDS011;6583;42.632;23.298;2024-03-23T02:45:17;3.13;;;2.37;;
13032;SDS011;6583;42.632;23.298;2024-03-23T02:47:43;2.33;;;2.10;;
13032;SDS011;6583;42.632;23.298;2024-03-23T02:50:09;2.23;;;1.90;;
13032;SDS011;6583;42.632;23.298;2024-03-23T02:52:35;2.90;;;2.30;;
13032;SDS011;6583;42.632;23.298;2024-03-23T02:55:02;2.70;;;2.40;;
13032;SDS011;6583;42.632;23.298;2024-03-23T02:57:30;3.30;;;2.80;;
13032;SDS011;6583;42.632;23.298;2024-03-23T02:59:56;4.13;;;2.80;;
13032;SDS011;6583;42.632;23.298;2024-03-23T03:02:22;3.63;;;2.90;;
13032;SDS011;6583;42.632;23.298;2024-03-23T03:04:49;3.50;;;2.77;;
13032;SDS011;6583;42.632;23.298;2024-03-23T03:07:14;3.87;;;2.80;;
13032;SDS011;6583;42.632;23.298;2024-03-23T03:09:41;3.33;;;2.50;;
13032;SDS011;6583;42.632;23.298;2024-03-23T03:12:07;2.60;;;2.30;;
13032;SDS011;6583;42.632;23.298;2024-03-23T03:14:35;2.67;;;2.47;;
13032;SDS011;6583;42.632;23.298;2024-03-23T03:17:01;2.80;;;2.47;;
13032;SDS011;6583;42.632;23.298;2024-03-23T03:19:30;3.97;;;2.70;;
13032;SDS011;6583;42.632;23.298;2024-03-23T03:21:55;3.37;;;2.77;;
13032;SDS011;6583;42.632;23.298;2024-03-23T03:24:22;3.47;;;2.77;;
13032;SDS011;6583;42.632;23.298;2024-03-23T03:26:48;3.20;;;2.67;;
13032;SDS011;6583;42.632;23.298;2024-03-23T03:29:15;3.00;;;2.40;;
13032;SDS011;6583;42.632;23.298;2024-03-23T03:31:42;4.97;;;3.03;;
13032;SDS011;6583;42.632;23.298;2024-03-23T03:34:08;3.17;;;2.60;;
13032;SDS011;6583;42.632;23.298;2024-03-23T03:36:34;3.20;;;2.60;;
13032;SDS011;6583;42.632;23.298;2024-03-23T03:39:01;4.00;;;2.90;;
13032;SDS011;6583;42.632;23.298;2024-03-23T03:41:28;3.30;;;3.00;;
13032;SDS011;6583;42.632;23.298;2024-03-23T03:43:55;4.17;;;2.73;;
13032;SDS011;6583;42.632;23.298;2024-03-23T03:46:20;3.93;;;3.07;;
13032;SDS011;6583;42.632;23.298;2024-03-23T03:48:49;3.93;;;2.73;;
13032;SDS011;6583;42.632;23.298;2024-03-23T03:51:15;3.47;;;2.93;;
13032;SDS011;6583;42.632;23.298;2024-03-23T03:53:41;3.97;;;3.23;;
13032;SDS011;6583;42.632;23.298;2024-03-23T03:56:07;4.37;;;3.33;;
13032;SDS011;6583;42.632;23.298;2024-03-23T03:58:33;3.70;;;3.10;;
13032;SDS011;6583;42.632;23.298;2024-03-23T04:00:59;5.57;;;3.40;;
13032;SDS011;6583;42.632;23.298;2024-03-23T04:03:26;3.80;;;3.30;;
13032;SDS011;6583;42.632;23.298;2024-03-23T04:05:53;5.23;;;3.50;;
13032;SDS011;6583;42.632;23.298;2024-03-23T04:08:20;5.03;;;3.40;;
13032;SDS011;6583;42.632;23.298;2024-03-23T04:10:46;3.50;;;3.13;;
13032;SDS011;6583;42.632;23.298;2024-03-23T04:13:13;4.37;;;3.40;;
13032;SDS011;6583;42.632;23.298;2024-03-23T04:15:38;5.23;;;3.50;;
13032;SDS011;6583;42.632;23.298;2024-03-23T04:18:05;5.47;;;3.60;;
13032;SDS011;6583;42.632;23.298;2024-03-23T04:20:31;4.33;;;3.27;;
13032;SDS011;6583;42.632;23.298;2024-03-23T04:22:59;6.00;;;3.90;;
13032;SDS011;6583;42.632;23.298;2024-03-23T04:25:25;4.20;;;3.30;;
13032;SDS011;6583;42.632;23.298;2024-03-23T04:27:52;6.63;;;3.67;;
13032;SDS011;6583;42.632;23.298;2024-03-23T04:30:18;5.87;;;3.73;;
13032;SDS011;6583;42.632;23.298;2024-03-23T04:32:46;4.47;;;3.47;;
13032;SDS011;6583;42.632;23.298;2024-03-23T04:35:12;4.50;;;3.50;;
13032;SDS011;6583;42.632;23.298;2024-03-23T04:37:39;5.97;;;3.30;;
13032;SDS011;6583;42.632;23.298;2024-03-23T04:40:08;6.93;;;3.67;;
13032;SDS011;6583;42.632;23.298;2024-03-23T04:42:36;4.83;;;3.30;;
13032;SDS011;6583;42.632;23.298;2024-03-23T04:45:03;3.40;;;2.93;;
13032;SDS011;6583;42.632;23.298;2024-03-23T04:47:31;4.87;;;3.50;;
13032;SDS011;6583;42.632;23.298;2024-03-23T04:49:57;3.73;;;3.30;;
13032;SDS011;6583;42.632;23.298;2024-03-23T04:52:24;3.90;;;3.40;;
13032;SDS011;6583;42.632;23.298;2024-03-23T04:54:51;5.00;;;3.73;;
13032;SDS011;6583;42.632;23.298;2024-03-23T04:57:19;4.50;;;3.37;;
13032;SDS011;6583;42.632;23.298;2024-03-23T04:59:44;4.37;;;3.27;;
13032;SDS011;6583;42.632;23.298;2024-03-23T05:02:12;4.23;;;3.50;;
13032;SDS011;6583;42.632;23.298;2024-03-23T05:04:38;3.80;;;3.20;;
13032;SDS011;6583;42.632;23.298;2024-03-23T05:07:05;4.20;;;3.60;;
13032;SDS011;6583;42.632;23.298;2024-03-23T05:09:31;7.57;;;3.40;;
13032;SDS011;6583;42.632;23.298;2024-03-23T05:11:58;5.17;;;3.77;;
13032;SDS011;6583;42.632;23.298;2024-03-23T05:14:26;3.67;;;3.03;;
13032;SDS011;6583;42.632;23.298;2024-03-23T05:16:53;4.93;;;4.03;;
13032;SDS011;6583;42.632;23.298;2024-03-23T05:19:19;6.50;;;3.60;;
13032;SDS011;6583;42.632;23.298;2024-03-23T05:21:45;5.03;;;3.60;;
13032;SDS011;6583;42.632;23.298;2024-03-23T05:24:11;5.20;;;4.10;;
13032;SDS011;6583;42.632;23.298;2024-03-23T05:26:38;8.03;;;4.57;;
13032;SDS011;6583;42.632;23.298;2024-03-23T05:29:04;7.10;;;5.20;;
13032;SDS011;6583;42.632;23.298;2024-03-23T05:31:33;10.30;;;6.87;;
13032;SDS011;6583;42.632;23.298;2024-03-23T05:33:59;12.40;;;7.37;;
13032;SDS011;6583;42.632;23.298;2024-03-23T05:36:25;19.23;;;11.60;;
13032;SDS011;6583;42.632;23.298;2024-03-23T05:38:51;24.17;;;16.00;;
13032;SDS011;6583;42.632;23.298;2024-03-23T05:41:18;21.50;;;14.43;;
13032;SDS011;6583;42.632;23.298;2024-03-23T05:43:43;25.70;;;16.37;;
13032;SDS011;6583;42.632;23.298;2024-03-23T05:46:10;21.53;;;14.93;;
13032;SDS011;6583;42.632;23.298;2024-03-23T05:48:38;16.67;;;11.50;;
13032;SDS011;6583;42.632;23.298;2024-03-23T05:51:04;15.03;;;10.90;;
13032;SDS011;6583;42.632;23.298;2024-03-23T05:53:30;16.37;;;11.37;;
13032;SDS011;6583;42.632;23.298;2024-03-23T05:56:00;17.50;;;11.23;;
13032;SDS011;6583;42.632;23.298;2024-03-23T05:58:28;18.80;;;12.37;;
13032;SDS011;6583;42.632;23.298;2024-03-23T06:00:59;16.80;;;12.27;;
13032;SDS011;6583;42.632;23.298;2024-03-23T06:03:26;19.20;;;12.13;;
13032;SDS011;6583;42.632;23.298;2024-03-23T06:05:54;20.37;;;12.63;;
13032;SDS011;6583;42.632;23.298;2024-03-23T06:08:20;15.53;;;11.93;;
13032;SDS011;6583;42.632;23.298;2024-03-23T06:10:47;19.23;;;13.10;;
13032;SDS011;6583;42.632;23.298;2024-03-23T06:13:13;19.93;;;14.30;;
13032;SDS011;6583;42.632;23.298;2024-03-23T06:15:40;19.80;;;14.93;;
13032;SDS011;6583;42.632;23.298;2024-03-23T06:18:06;18.87;;;12.70;;
13032;SDS011;6583;42.632;23.298;2024-03-23T06:20:33;14.23;;;10.73;;
13032;SDS011;6583;42.632;23.298;2024-03-23T06:23:00;21.47;;;13.20;;
13032;SDS011;6583;42.632;23.298;2024-03-23T06:25:27;18.00;;;12.40;;
13032;SDS011;6583;42.632;23.298;2024-03-23T06:27:53;14.77;;;11.77;;
13032;SDS011;6583;42.632;23.298;2024-03-23T06:30:19;15.47;;;10.83;;
13032;SDS011;6583;42.632;23.298;2024-03-23T06:32:45;14.33;;;12.13;;
13032;SDS011;6583;42.632;23.298;2024-03-23T06:35:12;16.67;;;11.20;;
13032;SDS011;6583;42.632;23.298;2024-03-23T06:37:38;17.40;;;11.70;;
13032;SDS011;6583;42.632;23.298;2024-03-23T06:40:08;15.40;;;11.60;;
13032;SDS011;6583;42.632;23.298;2024-03-23T06:42:35;16.57;;;11.50;;
13032;SDS011;6583;42.632;23.298;2024-03-23T06:45:01;17.73;;;12.30;;
13032;SDS011;6583;42.632;23.298;2024-03-23T06:47:28;18.13;;;11.77;;
13032;SDS011;6583;42.632;23.298;2024-03-23T06:49:55;17.67;;;12.03;;
13032;SDS011;6583;42.632;23.298;2024-03-23T06:52:20;18.90;;;12.47;;
13032;SDS011;6583;42.632;23.298;2024-03-23T06:54:47;17.30;;;11.90;;
13032;SDS011;6583;42.632;23.298;2024-03-23T06:57:14;18.00;;;11.57;;
13032;SDS011;6583;42.632;23.298;2024-03-23T06:59:41;16.23;;;12.30;;
13032;SDS011;6583;42.632;23.298;2024-03-23T07:02:06;18.80;;;12.90;;
13032;SDS011;6583;42.632;23.298;2024-03-23T07:04:34;20.43;;;12.20;;
13032;SDS011;6583;42.632;23.298;2024-03-23T07:06:59;19.63;;;12.20;;
13032;SDS011;6583;42.632;23.298;2024-03-23T07:09:26;19.63;;;12.17;;
13032;SDS011;6583;42.632;23.298;2024-03-23T07:11:53;19.30;;;13.37;;
13032;SDS011;6583;42.632;23.298;2024-03-23T07:14:21;18.13;;;12.60;;
13032;SDS011;6583;42.632;23.298;2024-03-23T07:16:47;18.53;;;12.67;;
13032;SDS011;6583;42.632;23.298;2024-03-23T07:19:14;20.30;;;13.70;;
13032;SDS011;6583;42.632;23.298;2024-03-23T07:21:41;18.53;;;13.63;;
13032;SDS011;6583;42.632;23.298;2024-03-23T07:24:08;18.87;;;13.87;;
13032;SDS011;6583;42.632;23.298;2024-03-23T07:26:34;17.53;;;13.13;;
13032;SDS011;6583;42.632;23.298;2024-03-23T07:29:01;17.20;;;12.83;;
13032;SDS011;6583;42.632;23.298;2024-03-23T07:31:28;19.20;;;13.90;;
13032;SDS011;6583;42.632;23.298;2024-03-23T07:33:55;17.47;;;13.00;;
13032;SDS011;6583;42.632;23.298;2024-03-23T07:36:20;17.93;;;13.73;;
13032;SDS011;6583;42.632;23.298;2024-03-23T07:38:47;16.60;;;12.93;;
13032;SDS011;6583;42.632;23.298;2024-03-23T07:41:14;19.47;;;13.23;;
13032;SDS011;6583;42.632;23.298;2024-03-23T07:43:43;18.93;;;14.00;;
13032;SDS011;6583;42.632;23.298;2024-03-23T07:46:09;20.53;;;16.03;;
13032;SDS011;6583;42.632;23.298;2024-03-23T07:48:38;17.20;;;13.37;;
13032;SDS011;6583;42.632;23.298;2024-03-23T07:51:06;19.87;;;13.57;;
13032;SDS011;6583;42.632;23.298;2024-03-23T07:53:34;16.23;;;12.70;;
13032;SDS011;6583;42.632;23.298;2024-03-23T07:56:01;17.40;;;13.53;;
13032;SDS011;6583;42.632;23.298;2024-03-23T07:58:29;19.37;;;13.20;;
13032;SDS011;6583;42.632;23.298;2024-03-23T08:00:55;18.83;;;13.27;;
13032;SDS011;6583;42.632;23.298;2024-03-23T08:03:22;19.10;;;13.57;;
13032;SDS011;6583;42.632;23.298;2024-03-23T08:05:49;16.90;;;12.43;;
13032;SDS011;6583;42.632;23.298;2024-03-23T08:08:16;17.63;;;12.40;;
13032;SDS011;6583;42.632;23.298;2024-03-23T08:10:48;21.10;;;14.00;;
13032;SDS011;6583;42.632;23.298;2024-03-23T08:13:15;20.53;;;13.40;;
13032;SDS011;6583;42.632;23.298;2024-03-23T08:15:41;21.33;;;13.40;;
13032;SDS011;6583;42.632;23.298;2024-03-23T08:18:08;18.80;;;13.47;;
13032;SDS011;6583;42.632;23.298;2024-03-23T08:20:36;16.67;;;12.50;;
13032;SDS011;6583;42.632;23.298;2024-03-23T08:23:03;16.53;;;12.90;;
13032;SDS011;6583;42.632;23.298;2024-03-23T08:25:31;17.20;;;12.93;;
13032;SDS011;6583;42.632;23.298;2024-03-23T08:27:57;20.50;;;13.13;;
13032;SDS011;6583;42.632;23.298;2024-03-23T08:30:23;18.87;;;13.43;;
13032;SDS011;6583;42.632;23.298;2024-03-23T08:32:49;19.03;;;13.60;;
13032;SDS011;6583;42.632;23.298;2024-03-23T08:35:16;20.67;;;14.53;;
13032;SDS011;6583;42.632;23.298;2024-03-23T08:37:42;24.40;;;16.07;;
13032;SDS011;6583;42.632;23.298;2024-03-23T08:40:10;18.90;;;13.37;;
13032;SDS011;6583;42.632;23.298;2024-03-23T08:42:36;20.47;;;13.37;;
13032;SDS011;6583;42.632;23.298;2024-03-23T08:45:03;18.00;;;13.23;;
13032;SDS011;6583;42.632;23.298;2024-03-23T08:47:33;17.97;;;12.27;;
13032;SDS011;6583;42.632;23.298;2024-03-23T08:50:01;17.93;;;12.70;;
13032;SDS011;6583;42.632;23.298;2024-03-23T08:52:26;17.93;;;11.30;;
13032;SDS011;6583;42.632;23.298;2024-03-23T08:54:53;15.47;;;12.00;;
13032;SDS011;6583;42.632;23.298;2024-03-23T08:57:20;16.70;;;11.67;;
13032;SDS011;6583;42.632;23.298;2024-03-23T08:59:47;19.00;;;12.37;;
13032;SDS011;6583;42.632;23.298;2024-03-23T09:02:13;18.17;;;12.10;;
13032;SDS011;6583;42.632;23.298;2024-03-23T09:04:40;16.00;;;11.83;;
13032;SDS011;6583;42.632;23.298;2024-03-23T09:07:05;17.20;;;12.40;;
13032;SDS011;6583;42.632;23.298;2024-03-23T09:09:32;17.23;;;12.10;;
13032;SDS011;6583;42.632;23.298;2024-03-23T09:11:58;14.47;;;11.60;;
13032;SDS011;6583;42.632;23.298;2024-03-23T09:14:26;15.77;;;11.50;;
13032;SDS011;6583;42.632;23.298;2024-03-23T09:16:51;15.60;;;11.97;;
13032;SDS011;6583;42.632;23.298;2024-03-23T09:19:18;17.93;;;11.80;;
13032;SDS011;6583;42.632;23.298;2024-03-23T09:21:45;14.13;;;10.83;;
13032;SDS011;6583;42.632;23.298;2024-03-23T09:24:11;15.03;;;11.30;;
13032;SDS011;6583;42.632;23.298;2024-03-23T09:26:37;16.20;;;10.87;;
13032;SDS011;6583;42.632;23.298;2024-03-23T09:29:04;13.27;;;10.50;;
13032;SDS011;6583;42.632;23.298;2024-03-23T09:31:31;13.27;;;10.77;;
13032;SDS011;6583;42.632;23.298;2024-03-23T09:33:58;18.33;;;10.33;;
13032;SDS011;6583;42.632;23.298;2024-03-23T09:36:24;13.10;;;9.50;;
13032;SDS011;6583;42.632;23.298;2024-03-23T09:38:51;13.40;;;9.40;;
13032;SDS011;6583;42.632;23.298;2024-03-23T09:41:16;13.20;;;9.53;;
13032;SDS011;6583;42.632;23.298;2024-03-23T09:43:43;14.90;;;9.47;;
13032;SDS011;6583;42.632;23.298;2024-03-23T09:46:09;12.33;;;8.27;;
13032;SDS011;6583;42.632;23.298;2024-03-23T09:48:37;15.33;;;8.80;;
13032;SDS011;6583;42.632;23.298;2024-03-23T09:51:03;12.33;;;8.93;;
13032;SDS011;6583;42.632;23.298;2024-03-23T09:53:30;13.30;;;9.20;;
13032;SDS011;6583;42.632;23.298;2024-03-23T09:55:57;13.80;;;10.10;;
13032;SDS011;6583;42.632;23.298;2024-03-23T09:58:24;13.00;;;10.40;;
13032;SDS011;6583;42.632;23.298;2024-03-23T10:00:49;13.77;;;9.70;;
13032;SDS011;6583;42.632;23.298;2024-03-23T10:03:16;14.13;;;10.00;;
13032;SDS011;6583;42.632;23.298;2024-03-23T10:05:43;13.93;;;9.30;;
13032;SDS011;6583;42.632;23.298;2024-03-23T10:08:17;13.80;;;10.40;;
13032;SDS011;6583;42.632;23.298;2024-03-23T10:10:44;13.97;;;9.87;;
13032;SDS011;6583;42.632;23.298;2024-03-23T10:13:14;18.47;;;9.73;;
13032;SDS011;6583;42.632;23.298;2024-03-23T10:15:50;13.77;;;9.77;;
13032;SDS011;6583;42.632;23.298;2024-03-23T10:18:22;12.47;;;9.47;;
13032;SDS011;6583;42.632;23.298;2024-03-23T10:20:50;13.37;;;9.33;;
13032;SDS011;6583;42.632;23.298;2024-03-23T10:23:18;11.50;;;9.20;;
13032;SDS011;6583;42.632;23.298;2024-03-23T10:25:44;14.67;;;9.23;;
13032;SDS011;6583;42.632;23.298;2024-03-23T10:28:11;10.83;;;8.70;;
13032;SDS011;6583;42.632;23.298;2024-03-23T10:30:37;10.03;;;8.57;;
13032;SDS011;6583;42.632;23.298;2024-03-23T10:33:07;11.17;;;8.40;;
13032;SDS011;6583;42.632;23.298;2024-03-23T10:35:34;12.07;;;7.93;;
13032;SDS011;6583;42.632;23.298;2024-03-23T10:38:03;11.67;;;7.90;;
13032;SDS011;6583;42.632;23.298;2024-03-23T10:40:30;10.20;;;8.43;;
13032;SDS011;6583;42.632;23.298;2024-03-23T10:42:57;11.93;;;9.27;;
13032;SDS011;6583;42.632;23.298;2024-03-23T10:45:23;11.53;;;8.70;;
13032;SDS011;6583;42.632;23.298;2024-03-23T10:47:50;11.47;;;8.40;;
13032;SDS011;6583;42.632;23.298;2024-03-23T10:50:17;13.07;;;8.30;;
13032;SDS011;6583;42.632;23.298;2024-03-23T10:52:45;12.07;;;8.83;;
13032;SDS011;6583;42.632;23.298;2024-03-23T10:55:14;11.90;;;9.20;;
13032;SDS011;6583;42.632;23.298;2024-03-23T10:57:44;10.43;;;8.57;;
13032;SDS011;6583;42.632;23.298;2024-03-23T11:00:13;11.10;;;8.47;;
13032;SDS011;6583;42.632;23.298;2024-03-23T11:02:41;10.97;;;8.47;;
13032;SDS011;6583;42.632;23.298;2024-03-23T11:07:55;11.00;;;8.13;;
13032;SDS011;6583;42.632;23.298;2024-03-23T11:10:26;9.37;;;7.93;;
13032;SDS011;6583;42.632;23.298;2024-03-23T11:12:54;12.37;;;8.13;;
13032;SDS011;6583;42.632;23.298;2024-03-23T11:15:20;9.70;;;8.47;;
13032;SDS011;6583;42.632;23.298;2024-03-23T11:20:34;11.43;;;8.67;;
13032;SDS011;6583;42.632;23.298;2024-03-23T11:23:01;11.20;;;8.30;;
13032;SDS011;6583;42.632;23.298;2024-03-23T11:25:28;12.60;;;8.43;;
13032;SDS011;6583;42.632;23.298;2024-03-23T11:27:56;12.70;;;9.17;;
13032;SDS011;6583;42.632;23.298;2024-03-23T11:30:23;10.10;;;8.03;;
13032;SDS011;6583;42.632;23.298;2024-03-23T11:32:51;9.87;;;7.70;;
13032;SDS011;6583;42.632;23.298;2024-03-23T11:35:25;11.70;;;9.77;;
13032;SDS011;6583;42.632;23.298;2024-03-23T11:38:05;11.07;;;8.67;;
13032;SDS011;6583;42.632;23.298;2024-03-23T11:40:33;10.43;;;7.57;;
13032;SDS011;6583;42.632;23.298;2024-03-23T11:43:02;8.73;;;7.20;;
13032;SDS011;6583;42.632;23.298;2024-03-23T11:45:29;10.83;;;7.77;;
13032;SDS011;6583;42.632;23.298;2024-03-23T11:48:04;10.47;;;7.47;;
13032;SDS011;6583;42.632;23.298;2024-03-23T11:50:31;9.90;;;7.33;;
13032;SDS011;6583;42.632;23.298;2024-03-23T11:55:44;8.37;;;5.70;;
13032;SDS011;6583;42.632;23.298;2024-03-23T11:58:12;9.53;;;6.37;;
13032;SDS011;6583;42.632;23.298;2024-03-23T12:00:38;6.77;;;5.83;;
13032;SDS011;6583;42.632;23.298;2024-03-23T12:03:06;8.33;;;6.43;;
13032;SDS011;6583;42.632;23.298;2024-03-23T12:05:32;7.27;;;5.33;;
13032;SDS011;6583;42.632;23.298;2024-03-23T12:08:15;8.10;;;5.83;;
13032;SDS011;6583;42.632;23.298;2024-03-23T12:10:47;8.87;;;6.23;;
13032;SDS011;6583;42.632;23.298;2024-03-23T12:13:18;7.03;;;5.87;;
13032;SDS011;6583;42.632;23.298;2024-03-23T12:15:45;6.50;;;5.37;;
13032;SDS011;6583;42.632;23.298;2024-03-23T12:18:12;6.90;;;5.50;;
13032;SDS011;6583;42.632;23.298;2024-03-23T12:20:38;8.97;;;5.43;;
13032;SDS011;6583;42.632;23.298;2024-03-23T12:23:09;7.93;;;5.50;;
13032;SDS011;6583;42.632;23.298;2024-03-23T12:25:36;8.10;;;5.90;;
13032;SDS011;6583;42.632;23.298;2024-03-23T12:28:05;7.03;;;5.60;;
13032;SDS011;6583;42.632;23.298;2024-03-23T12:30:32;5.17;;;4.67;;
13032;SDS011;6583;42.632;23.298;2024-03-23T12:32:59;5.17;;;4.43;;
13032;SDS011;6583;42.632;23.298;2024-03-23T12:35:25;4.10;;;3.67;;
13032;SDS011;6583;42.632;23.298;2024-03-23T12:37:52;6.63;;;4.73;;
13032;SDS011;6583;42.632;23.298;2024-03-23T12:40:17;7.53;;;4.60;;
13032;SDS011;6583;42.632;23.298;2024-03-23T12:42:44;4.27;;;3.33;;
13032;SDS011;6583;42.632;23.298;2024-03-23T12:45:11;4.47;;;3.70;;
13032;SDS011;6583;42.632;23.298;2024-03-23T12:47:38;4.57;;;3.60;;
13032;SDS011;6583;42.632;23.298;2024-03-23T12:50:04;4.13;;;3.63;;
13032;SDS011;6583;42.632;23.298;2024-03-23T12:52:32;5.27;;;4.07;;
13032;SDS011;6583;42.632;23.298;2024-03-23T12:54:57;6.57;;;4.70;;
13032;SDS011;6583;42.632;23.298;2024-03-23T12:57:24;7.97;;;5.80;;
13032;SDS011;6583;42.632;23.298;2024-03-23T12:59:50;4.00;;;3.60;;
13032;SDS011;6583;42.632;23.298;2024-03-23T13:02:19;5.93;;;3.30;;
13032;SDS011;6583;42.632;23.298;2024-03-23T13:04:46;2.73;;;2.53;;
13032;SDS011;6583;42.632;23.298;2024-03-23T13:07:13;3.53;;;2.90;;
13032;SDS011;6583;42.632;23.298;2024-03-23T13:09:39;4.03;;;2.80;;
13032;SDS011;6583;42.632;23.298;2024-03-23T13:12:06;3.03;;;1.57;;
13032;SDS011;6583;42.632;23.298;2024-03-23T13:14:32;1.67;;;1.50;;
13032;SDS011;6583;42.632;23.298;2024-03-23T13:16:58;1.97;;;1.40;;
13032;SDS011;6583;42.632;23.298;2024-03-23T13:19:28;2.13;;;1.43;;
13032;SDS011;6583;42.632;23.298;2024-03-23T13:21:55;1.20;;;1.10;;
13032;SDS011;6583;42.632;23.298;2024-03-23T13:24:22;1.73;;;1.30;;
13032;SDS011;6583;42.632;23.298;2024-03-23T13:26:49;1.20;;;1.10;;
13032;SDS011;6583;42.632;23.298;2024-03-23T13:29:16;2.40;;;1.50;;
13032;SDS011;6583;42.632;23.298;2024-03-23T13:31:42;1.73;;;1.40;;
13032;SDS011;6583;42.632;23.298;2024-03-23T13:34:09;1.70;;;1.40;;
13032;SDS011;6583;42.632;23.298;2024-03-23T13:36:36;2.60;;;1.30;;
13032;SDS011;6583;42.632;23.298;2024-03-23T13:39:03;1.83;;;1.50;;
13032;SDS011;6583;42.632;23.298;2024-03-23T13:41:34;1.90;;;1.40;;
13032;SDS011;6583;42.632;23.298;2024-03-23T13:44:00;1.70;;;1.40;;
13032;SDS011;6583;42.632;23.298;2024-03-23T13:46:26;3.80;;;1.53;;
13032;SDS011;6583;42.632;23.298;2024-03-23T13:48:53;1.43;;;1.33;;
13032;SDS011;6583;42.632;23.298;2024-03-23T13:51:22;1.47;;;1.37;;
13032;SDS011;6583;42.632;23.298;2024-03-23T13:53:53;1.73;;;1.20;;
13032;SDS011;6583;42.632;23.298;2024-03-23T13:56:19;1.23;;;1.13;;
13032;SDS011;6583;42.632;23.298;2024-03-23T13:58:46;1.25;;;1.10;;
13032;SDS011;6583;42.632;23.298;2024-03-23T14:01:12;1.17;;;1.07;;
13032;SDS011;6583;42.632;23.298;2024-03-23T14:03:40;1.40;;;1.30;;
13032;SDS011;6583;42.632;23.298;2024-03-23T14:06:06;2.07;;;1.30;;
13032;SDS011;6583;42.632;23.298;2024-03-23T14:08:33;2.07;;;1.50;;
13032;SDS011;6583;42.632;23.298;2024-03-23T14:11:03;2.15;;;1.50;;
13032;SDS011;6583;42.632;23.298;2024-03-23T14:13:30;1.87;;;1.53;;
13032;SDS011;6583;42.632;23.298;2024-03-23T14:15:56;1.77;;;1.40;;
13032;SDS011;6583;42.632;23.298;2024-03-23T14:18:23;1.60;;;1.13;;
13032;SDS011;6583;42.632;23.298;2024-03-23T14:20:48;3.10;;;1.60;;
13032;SDS011;6583;42.632;23.298;2024-03-23T14:23:15;1.63;;;1.53;;
13032;SDS011;6583;42.632;23.298;2024-03-23T14:25:41;1.53;;;1.40;;
13032;SDS011;6583;42.632;23.298;2024-03-23T14:28:09;1.70;;;1.43;;
13032;SDS011;6583;42.632;23.298;2024-03-23T14:30:39;1.77;;;1.20;;
13032;SDS011;6583;42.632;23.298;2024-03-23T14:33:06;1.97;;;1.13;;
13032;SDS011;6583;42.632;23.298;2024-03-23T14:35:31;1.40;;;1.27;;
13032;SDS011;6583;42.632;23.298;2024-03-23T14:37:58;1.27;;;1.17;;
13032;SDS011;6583;42.632;23.298;2024-03-23T14:40:24;1.20;;;1.10;;
13032;SDS011;6583;42.632;23.298;2024-03-23T14:42:52;1.37;;;1.27;;
13032;SDS011;6583;42.632;23.298;2024-03-23T14:45:20;1.02;;;1.02;;
13032;SDS011;6583;42.632;23.298;2024-03-23T14:47:47;1.57;;;1.30;;
13032;SDS011;6583;42.632;23.298;2024-03-23T14:50:13;1.70;;;1.60;;
13032;SDS011;6583;42.632;23.298;2024-03-23T14:52:41;3.73;;;1.70;;
13032;SDS011;6583;42.632;23.298;2024-03-23T14:55:07;1.60;;;1.50;;
13032;SDS011;6583;42.632;23.298;2024-03-23T14:57:35;2.17;;;1.50;;
13032;SDS011;6583;42.632;23.298;2024-03-23T15:00:00;1.60;;;1.23;;
13032;SDS011;6583;42.632;23.298;2024-03-23T15:02:31;3.03;;;1.40;;
13032;SDS011;6583;42.632;23.298;2024-03-23T15:04:57;1.97;;;1.70;;
13032;SDS011;6583;42.632;23.298;2024-03-23T15:07:24;3.63;;;1.50;;
13032;SDS011;6583;42.632;23.298;2024-03-23T15:09:50;1.60;;;1.50;;
13032;SDS011;6583;42.632;23.298;2024-03-23T15:12:17;2.07;;;1.40;;
13032;SDS011;6583;42.632;23.298;2024-03-23T15:14:43;2.27;;;1.40;;
13032;SDS011;6583;42.632;23.298;2024-03-23T15:17:11;3.87;;;1.43;;
13032;SDS011;6583;42.632;23.298;2024-03-23T15:19:38;2.33;;;1.50;;
13032;SDS011;6583;42.632;23.298;2024-03-23T15:22:05;2.47;;;1.80;;
13032;SDS011;6583;42.632;23.298;2024-03-23T15:24:30;3.47;;;1.73;;
13032;SDS011;6583;42.632;23.298;2024-03-23T15:26:59;2.90;;;1.90;;
13032;SDS011;6583;42.632;23.298;2024-03-23T15:29:24;1.93;;;1.50;;
13032;SDS011;6583;42.632;23.298;2024-03-23T15:31:51;2.27;;;1.73;;
13032;SDS011;6583;42.632;23.298;2024-03-23T15:34:17;3.03;;;1.83;;
13032;SDS011;6583;42.632;23.298;2024-03-23T15:36:48;2.30;;;1.63;;
13032;SDS011;6583;42.632;23.298;2024-03-23T15:39:15;1.80;;;1.70;;